createdAt,value
2022-12-13T00:02:14.437Z,88.74
2022-12-13T00:07:16.141Z,88.35
2022-12-13T00:12:19.059Z,89.02
2022-12-13T00:17:20.840Z,88.74
2022-12-13T00:22:22.495Z,87.92
2022-12-13T00:27:24.228Z,88.19
2022-12-13T00:32:25.925Z,87.43
2022-12-13T00:37:27.591Z,86.84
2022-12-13T00:42:29.240Z,86.78
2022-12-13T00:47:30.917Z,86.77
2022-12-13T00:52:34.661Z,86.79
2022-12-13T00:57:36.425Z,86.13
2022-12-13T01:02:38.198Z,86.10
2022-12-13T01:07:44.499Z,86.47
2022-12-13T01:12:47.259Z,86.83
2022-12-13T01:17:49.521Z,86.54
2022-12-13T01:22:51.184Z,86.27
2022-12-13T01:27:52.865Z,86.52
2022-12-13T01:32:54.644Z,86.81
2022-12-13T01:37:56.300Z,86.76
2022-12-13T01:43:00.016Z,86.71
2022-12-13T01:48:07.603Z,86.91
2022-12-13T01:53:14.919Z,86.46
2022-12-13T01:58:17.517Z,86.97
2022-12-13T02:03:22.150Z,87.34
2022-12-13T02:08:25.480Z,87.33
2022-12-13T02:13:27.243Z,87.39
2022-12-13T02:18:50.491Z,87.46
2022-12-13T02:24:13.844Z,87.77
2022-12-13T02:30:03.106Z,88.45
2022-12-13T02:35:29.556Z,88.20
2022-12-13T02:40:39.679Z,88.09
2022-12-13T02:45:46.712Z,88.04
2022-12-13T02:50:49.950Z,88.52
2022-12-13T02:55:51.688Z,89.24
2022-12-13T03:01:27.970Z,89.45
2022-12-13T03:06:34.749Z,89.62
2022-12-13T03:12:32.412Z,89.75
2022-12-13T03:17:44.145Z,90.16
2022-12-13T03:22:45.859Z,90.23
2022-12-13T03:27:47.534Z,90.88
2022-12-13T03:32:49.206Z,91.84
2022-12-13T03:37:51.350Z,91.79
2022-12-13T03:42:53.016Z,92.38
2022-12-13T03:47:54.673Z,92.22
2022-12-13T03:53:04.008Z,93.25
2022-12-13T03:58:07.964Z,93.08
2022-12-13T04:03:09.983Z,93.35
2022-12-13T04:08:21.551Z,93.19
2022-12-13T04:13:35.108Z,93.14
2022-12-13T04:18:36.798Z,92.81
2022-12-13T04:23:38.504Z,92.84
2022-12-13T04:28:40.185Z,92.59
2022-12-13T04:33:41.845Z,93.14
2022-12-13T04:38:43.530Z,93.24
2022-12-13T04:43:50.193Z,92.55
2022-12-13T04:48:51.871Z,91.89
2022-12-13T04:53:53.580Z,91.84
2022-12-13T04:58:55.293Z,92.11
2022-12-13T05:03:57.064Z,92.53
2022-12-13T05:09:00.627Z,93.02
2022-12-13T05:14:02.842Z,93.16
2022-12-13T05:19:04.671Z,92.75
2022-12-13T05:24:06.936Z,91.89
2022-12-13T05:29:08.649Z,90.91
2022-12-13T05:34:10.328Z,90.63
2022-12-13T05:39:29.401Z,90.12
2022-12-13T05:44:32.743Z,90.62
2022-12-13T05:49:34.508Z,90.36
2022-12-13T05:54:36.222Z,90.75
2022-12-13T05:59:37.880Z,90.54
2022-12-13T06:04:39.583Z,89.85
2022-12-13T06:09:41.559Z,89.72
2022-12-13T06:14:43.208Z,90.37
2022-12-13T06:19:46.477Z,90.13
2022-12-13T06:24:48.162Z,90.46
2022-12-13T06:29:49.953Z,91.46
2022-12-13T06:34:51.617Z,91.42
2022-12-13T06:39:53.314Z,90.76
2022-12-13T06:44:56.246Z,91.01
2022-12-13T06:49:58.121Z,90.71
2022-12-13T06:55:07.790Z,90.83
2022-12-13T07:00:10.343Z,91.27
2022-12-13T07:05:12.077Z,90.00
2022-12-13T07:10:22.485Z,89.15
2022-12-13T07:15:24.821Z,89.96
2022-12-13T07:20:26.571Z,89.38
2022-12-13T07:25:29.714Z,90.08
2022-12-13T07:30:34.551Z,88.42
2022-12-13T07:35:44.011Z,88.66
2022-12-13T07:40:45.756Z,89.30
2022-12-13T07:45:47.449Z,88.43
2022-12-13T07:50:54.554Z,87.97
2022-12-13T07:55:56.774Z,88.28
2022-12-13T08:01:03.649Z,89.42
2022-12-13T08:06:08.116Z,87.41
2022-12-13T08:11:12.766Z,88.53
2022-12-13T08:16:27.824Z,88.87
2022-12-13T08:21:54.490Z,88.44
2022-12-13T08:27:02.444Z,87.16
2022-12-13T08:32:09.006Z,88.00
2022-12-13T08:37:10.667Z,87.06
2022-12-13T08:42:18.176Z,85.40
2022-12-13T08:47:25.508Z,84.02
2022-12-13T08:52:28.185Z,83.89
2022-12-13T08:57:29.899Z,84.26
2022-12-13T09:02:31.620Z,84.86
2022-12-13T09:07:41.227Z,85.27
2022-12-13T09:12:43.206Z,84.97
2022-12-13T09:17:44.924Z,84.67
2022-12-13T09:23:01.729Z,84.81
2022-12-13T09:28:06.642Z,85.55
2022-12-13T09:33:18.165Z,84.88
2022-12-13T09:38:30.065Z,84.21
2022-12-13T09:43:42.990Z,84.55
2022-12-13T09:48:48.359Z,85.08
2022-12-13T09:53:52.776Z,84.44
2022-12-13T09:58:56.730Z,84.35
2022-12-13T10:04:00.075Z,84.33
2022-12-13T10:09:01.802Z,85.46
2022-12-13T10:14:12.844Z,86.00
2022-12-13T10:19:29.168Z,73.56
2022-12-13T10:25:00.204Z,55.20
2022-12-13T10:30:10.980Z,48.20
2022-12-13T10:35:20.844Z,46.47
2022-12-13T10:40:32.413Z,42.77
2022-12-13T10:45:35.310Z,41.47
2022-12-13T10:50:37.294Z,42.25
2022-12-13T10:55:39.104Z,39.67
2022-12-13T11:00:47.432Z,38.49
2022-12-13T11:06:03.252Z,38.59
2022-12-13T11:11:07.284Z,38.27
2022-12-13T11:16:26.844Z,38.04
2022-12-13T11:21:34.029Z,38.88
2022-12-13T11:26:39.420Z,37.84
2022-12-13T11:32:08.855Z,40.23
2022-12-13T11:37:13.327Z,43.78
2022-12-13T11:42:18.163Z,39.54
2022-12-13T11:47:26.935Z,38.53
2022-12-13T11:52:42.242Z,37.75
2022-12-13T11:57:55.483Z,40.34
2022-12-13T12:03:06.621Z,43.30
2022-12-13T12:08:40.617Z,41.23
2022-12-13T12:14:09.451Z,39.06
2022-12-13T12:19:14.717Z,41.75
2022-12-13T12:24:29.723Z,40.74
2022-12-13T12:29:46.583Z,41.14
2022-12-13T12:35:03.024Z,43.52
2022-12-13T12:41:15.798Z,45.31
2022-12-13T12:46:20.126Z,44.96
2022-12-13T12:51:28.808Z,43.62
2022-12-13T12:56:43.869Z,42.53
2022-12-13T13:02:07.312Z,43.02
2022-12-13T13:07:23.092Z,43.42
2022-12-13T13:12:29.034Z,45.38
2022-12-13T13:17:32.176Z,46.67
2022-12-13T13:22:44.322Z,48.09
2022-12-13T13:27:48.643Z,48.88
2022-12-13T13:32:53.307Z,54.11
2022-12-13T13:38:05.496Z,54.46
2022-12-13T13:43:10.201Z,57.73
2022-12-13T13:48:42.987Z,60.36
2022-12-13T13:53:44.594Z,58.42
2022-12-13T13:58:58.156Z,65.40
2022-12-13T14:04:18.293Z,65.67
2022-12-13T14:09:42.104Z,65.71
2022-12-13T14:15:01.299Z,64.27
2022-12-13T14:20:18.221Z,65.86
2022-12-13T14:25:52.330Z,66.23
2022-12-13T14:30:57.586Z,71.04
2022-12-13T14:36:01.795Z,73.52
2022-12-13T14:41:03.627Z,74.79
2022-12-13T14:46:07.253Z,77.42
2022-12-13T14:51:30.697Z,78.07
2022-12-13T14:56:32.901Z,79.51
2022-12-13T15:01:36.917Z,81.29
2022-12-13T15:06:39.574Z,81.10
2022-12-13T15:11:44.110Z,82.67
2022-12-13T15:16:50.584Z,83.92
2022-12-13T15:22:01.566Z,83.84
2022-12-13T15:27:08.226Z,84.81
2022-12-13T15:32:19.149Z,84.13
2022-12-13T15:37:28.220Z,85.86
2022-12-13T15:42:38.511Z,86.52
2022-12-13T15:47:45.559Z,85.83
2022-12-13T15:52:47.862Z,86.35
2022-12-13T15:57:55.246Z,86.64
2022-12-13T16:03:11.560Z,86.91
2022-12-13T16:08:31.310Z,87.78
2022-12-13T16:13:37.944Z,88.56
2022-12-13T16:18:46.817Z,88.34
2022-12-13T16:23:49.263Z,87.84
2022-12-13T16:28:51.241Z,88.71
2022-12-13T16:33:53.907Z,89.54
2022-12-13T16:38:55.560Z,88.82
2022-12-13T16:44:00.742Z,89.07
2022-12-13T16:49:08.953Z,89.74
2022-12-13T16:54:10.614Z,90.51
2022-12-13T16:59:20.680Z,91.07
2022-12-13T17:04:24.483Z,90.50
2022-12-13T17:09:26.199Z,90.42
2022-12-13T17:14:27.878Z,90.99
2022-12-13T17:19:29.567Z,92.32
2022-12-13T17:24:31.336Z,91.92
2022-12-13T17:29:33.897Z,91.19
2022-12-13T17:34:35.614Z,92.31
2022-12-13T17:39:37.652Z,93.24
2022-12-13T17:44:39.745Z,92.95
2022-12-13T17:49:41.444Z,93.00
2022-12-13T17:54:43.201Z,92.32
2022-12-13T17:59:44.912Z,92.16
2022-12-13T18:04:46.624Z,92.28
2022-12-13T18:09:48.380Z,91.68
2022-12-13T18:14:51.922Z,92.57
2022-12-13T18:19:53.621Z,92.65
2022-12-13T18:24:55.273Z,92.21
2022-12-13T18:29:56.939Z,91.85
2022-12-13T18:34:58.612Z,91.44
2022-12-13T18:40:00.268Z,92.18
2022-12-13T18:45:02.290Z,92.27
2022-12-13T18:50:04.282Z,91.91
2022-12-13T18:55:06.656Z,91.72
2022-12-13T19:00:09.123Z,90.88
2022-12-13T19:05:10.846Z,91.65
2022-12-13T19:10:12.519Z,91.40
2022-12-13T19:15:15.315Z,91.90
2022-12-13T19:20:18.051Z,91.12
2022-12-13T19:25:20.809Z,90.24
2022-12-13T19:30:23.816Z,91.33
2022-12-13T19:35:26.063Z,91.61
2022-12-13T19:40:27.804Z,90.65
2022-12-13T19:45:29.510Z,91.32
2022-12-13T19:50:31.179Z,90.89
2022-12-13T19:55:35.689Z,90.18
2022-12-13T20:00:37.428Z,90.35
2022-12-13T20:05:45.337Z,90.05
2022-12-13T20:10:47.724Z,90.32
2022-12-13T20:15:49.657Z,89.79
2022-12-13T20:21:10.991Z,89.44
2022-12-13T20:26:15.176Z,89.05
2022-12-13T20:31:38.114Z,89.92
2022-12-13T20:36:41.198Z,89.56
2022-12-13T20:41:42.902Z,89.31
2022-12-13T20:46:44.667Z,89.01
2022-12-13T20:51:46.344Z,89.33
2022-12-13T20:56:48.030Z,89.15
2022-12-13T21:01:49.847Z,88.98
2022-12-13T21:06:51.548Z,89.21
2022-12-13T21:11:53.280Z,88.58
2022-12-13T21:16:57.435Z,88.59
2022-12-13T21:21:59.342Z,88.10
2022-12-13T21:27:01.183Z,88.75
2022-12-13T21:32:03.094Z,88.78
2022-12-13T21:37:05.812Z,88.62
2022-12-13T21:42:07.475Z,88.57
2022-12-13T21:47:12.243Z,88.55
2022-12-13T21:52:14.542Z,88.24
2022-12-13T21:57:34.589Z,87.34
2022-12-13T22:02:36.374Z,88.42
2022-12-13T22:07:38.537Z,87.85
2022-12-13T22:12:41.386Z,88.46
2022-12-13T22:17:43.288Z,87.89
2022-12-13T22:22:45.416Z,87.65
2022-12-13T22:27:47.116Z,88.04
2022-12-13T22:32:48.792Z,87.97
2022-12-13T22:37:50.443Z,87.80
2022-12-13T22:42:52.109Z,88.04
2022-12-13T22:47:54.492Z,87.89
2022-12-13T22:52:56.188Z,87.35
2022-12-13T22:57:57.856Z,87.31
2022-12-13T23:02:59.558Z,86.80
2022-12-13T23:08:01.301Z,86.48
2022-12-13T23:13:03.020Z,87.18
2022-12-13T23:18:04.733Z,87.32
2022-12-13T23:23:06.424Z,86.25
2022-12-13T23:28:08.097Z,86.88
2022-12-13T23:33:09.788Z,86.01
2022-12-13T23:38:11.465Z,86.29
2022-12-13T23:43:13.122Z,86.35
2022-12-13T23:48:14.774Z,87.29
2022-12-13T23:53:16.466Z,87.20
2022-12-13T23:58:22.411Z,87.40
